Estación Meteorológica Peña el Pijo (Robertgarden) [ 02/03/23 02:48:21 CET ]

Fecha Hora Presion(HPa) Temp (°C) Humedad % Rocio (°C) Viento ( m/s) Direccion Lluvia 1Hora(mm) Lluvia 24H(mm) LLuvia Total(mm)
2010-Aug-26 01:01:13 1017.400 17.9 74 13.2         152.29
2010-Aug-26 02:01:19 1017.100 16.9 76 12.6         152.29
2010-Aug-26 03:01:16 1016.800 16.3 77 12.3         152.29
2010-Aug-26 04:01:13 1016.300 15.4 79 11.8         152.29
2010-Aug-26 05:01:13 1016.100 14.8 81 11.6         152.29
2010-Aug-26 06:01:16 1016.000 14.5 81 11.3         152.29
2010-Aug-26 07:01:15 1016.100 13.6 82 10.6         152.29
2010-Aug-26 08:01:14 1016.200 13.5 83 10.6         152.29
2010-Aug-26 09:01:16 1016.200 18.8 72 13.6         152.29
2010-Aug-26 10:01:13 1016.400 25.4 57 16.2         152.29
2010-Aug-26 11:01:15 1016.600 31.9 39 16.2         152.29
2010-Aug-26 12:01:16 1016.300 37.6 24 13.4         152.29
2010-Aug-26 13:01:12 1016.500 39.2 18 10.1         152.29
2010-Aug-26 14:01:20 1016.000 39.3 14 6.2 0.8 SW     152.29
2010-Aug-26 15:01:18 1015.800 39.2 13 5.1         152.29
2010-Aug-26 16:01:17 1015.300 39.5 13 5.4 1.3 SSE     152.29
2010-Aug-26 17:01:37 1015.000 40.1 13 5.8         152.29
2010-Aug-26 18:01:31 1014.700 38.2 14 5.3         152.29
2010-Aug-26 19:01:40 1014.600 36.3 14 3.8         152.29
2010-Aug-26 20:01:32 1014.700 32.4 18 4.7         152.29
2010-Aug-26 21:01:15 1015.200 25.5 32 7.5         152.29
2010-Aug-26 22:01:13 1015.800 21.6 41 7.8         152.29
2010-Aug-26 23:01:17 1016.300 19.5 47 7.9         152.29

Temperatura Máxima:40°    Temperatura Mínima:13°
Presión Máxima:1017.400 Hpa    Presión Mínima:1014.600 Hpa


Volver